Terminal Aerodrome Forecast
Issued by NWS La Crosse, WI

Home | Current Version | Previous Version | Text Only | Print | Product List | Glossary On
Versions: 1 2 3 4 5 6 7 8 9 10 11 12 13 14 15 16 17 18 19 20 21 22 23 24 25 26 27 28 29 30 31 32 33 34 35 36 37 38 39
000
FTUS43 KARX 291229 AAA
TAFRST
TAF AMD
KRST 291229Z 2912/3012 05006KT 1/4SM FG VV002
     FM291400 07007KT 2SM BR BKN005
     FM291600 07005KT P6SM BKN007
     FM291800 08005KT P6SM SCT015
     FM292300 13005KT P6SM SKC
     FM300700 18005KT 3SM BR SCT003
      TEMPO 3009/3012 1SM BR BKN003=

USA.gov is the U.S. government's official web portal to all federal, state and local government web resources and services.